Time;durP1;ratioP1;P1;durP2;ratioP2;P2;SDS_P1;SDS_P2;PMS_P1;PMS_P2;Temp;Humidity;BMP_temperature;BMP_pressure;BME280_temperature;BME280_humidity;BME280_pressure;Samples;Min_cycle;Max_cycle;Signal;HPM_P1;HPM_P2
2023/11/13 00:04:58;;;;;;;7.20;6.10;;;;;;;5.32;89.50;99196.60;219373;1256;140164;-70
2023/11/13 00:10:01;;;;;;;13.00;7.60;;;;;;;5.32;89.91;99195.63;220372;1259;140562;-69
2023/11/13 00:15:05;;;;;;;12.30;8.40;;;;;;;5.31;89.62;99199.42;220081;1256;141109;-69
2023/11/13 00:20:08;;;;;;;11.80;7.70;;;;;;;5.30;90.17;99203.25;220101;1256;141193;-67
2023/11/13 00:25:10;;;;;;;10.20;8.50;;;;;;;5.29;89.96;99205.94;220300;1256;140648;-70
2023/11/13 00:30:13;;;;;;;12.20;8.40;;;;;;;5.31;90.14;99212.14;217696;1256;139768;-70
2023/11/13 00:35:16;;;;;;;15.70;9.30;;;;;;;5.34;90.42;99213.05;217434;1256;140657;-71
2023/11/13 00:40:19;;;;;;;12.00;8.60;;;;;;;5.37;90.45;99210.80;219185;1260;139839;-68
2023/11/13 00:45:24;;;;;;;10.90;7.40;;;;;;;5.35;90.18;99215.34;220194;1260;139810;-68
2023/11/13 00:50:27;;;;;;;15.30;10.20;;;;;;;5.32;90.16;99221.00;220047;1256;140182;-69
2023/11/13 00:55:31;;;;;;;11.70;9.40;;;;;;;5.30;90.03;99221.95;219289;1256;140805;-68
2023/11/13 01:00:35;;;;;;;11.80;8.30;;;;;;;5.29;90.22;99222.80;219775;1256;140005;-68
2023/11/13 01:05:38;;;;;;;15.80;10.20;;;;;;;5.27;90.43;99221.85;220303;1258;141483;-68
2023/11/13 01:10:41;;;;;;;19.40;9.50;;;;;;;5.29;90.14;99217.31;220100;1256;140379;-69
2023/11/13 01:15:44;;;;;;;11.90;9.00;;;;;;;5.30;90.25;99223.41;218926;1256;466160;-71
2023/11/13 01:20:47;;;;;;;11.20;8.10;;;;;;;5.31;90.20;99222.02;220248;1256;140688;-70
2023/11/13 01:25:52;;;;;;;14.90;9.20;;;;;;;5.30;90.41;99221.13;220281;1256;142290;-70
2023/11/13 01:30:55;;;;;;;13.40;9.30;;;;;;;5.30;90.45;99224.48;220226;1257;140163;-69
2023/11/13 01:35:59;;;;;;;12.20;9.70;;;;;;;5.28;90.25;99222.61;219977;1257;139908;-69
2023/11/13 01:41:03;;;;;;;10.30;9.00;;;;;;;5.28;90.26;99219.96;220194;1256;152731;-70
2023/11/13 01:46:09;;;;;;;13.80;8.90;;;;;;;5.27;89.98;99218.38;220269;1256;139840;-71
2023/11/13 01:51:13;;;;;;;12.10;10.00;;;;;;;5.26;90.03;99219.33;220159;1259;140280;-70
2023/11/13 01:56:15;;;;;;;17.10;9.80;;;;;;;5.28;90.08;99218.94;220294;1255;140547;-69
2023/11/13 02:01:19;;;;;;;11.80;7.40;;;;;;;5.28;90.16;99222.04;220227;1256;140346;-69
2023/11/13 02:06:23;;;;;;;16.40;9.20;;;;;;;5.28;90.22;99225.58;220118;1256;140865;-69
2023/11/13 02:11:28;;;;;;;11.20;7.40;;;;;;;5.28;90.22;99221.19;218929;1257;140638;-68
2023/11/13 02:16:31;;;;;;;12.70;8.80;;;;;;;5.27;89.87;99216.92;219988;1257;140403;-68
2023/11/13 02:21:35;;;;;;;15.50;9.80;;;;;;;5.26;89.71;99211.44;218912;1256;141055;-68
2023/11/13 02:26:38;;;;;;;13.10;9.30;;;;;;;5.26;90.18;99211.56;220103;1256;140717;-68
2023/11/13 02:31:55;;;;;;;11.70;9.50;;;;;;;5.25;89.73;99215.67;219707;1259;140223;-67
2023/11/13 02:36:58;;;;;;;13.20;9.40;;;;;;;5.24;89.91;99221.94;218298;1260;140248;-67
2023/11/13 02:42:02;;;;;;;12.10;10.60;;;;;;;5.25;89.97;99226.41;218483;1257;140427;-66
2023/11/13 02:47:06;;;;;;;10.80;9.50;;;;;;;5.24;89.91;99230.35;220006;1255;140419;-67
2023/11/13 02:52:10;;;;;;;18.80;10.20;;;;;;;5.23;89.87;99234.05;220179;1257;140530;-68
2023/11/13 02:57:14;;;;;;;12.80;9.30;;;;;;;5.20;89.42;99230.48;219441;1256;141030;-68
2023/11/13 03:02:17;;;;;;;8.70;7.10;;;;;;;5.18;89.21;99222.45;218481;1256;140542;-68
2023/11/13 03:07:20;;;;;;;9.80;7.20;;;;;;;5.16;89.18;99217.05;218984;1257;140824;-68
2023/11/13 03:12:23;;;;;;;9.60;7.30;;;;;;;5.13;88.76;99212.60;220086;1259;140570;-67
2023/11/13 03:17:26;;;;;;;14.90;9.40;;;;;;;5.10;88.87;99205.45;220154;1256;140342;-67
2023/11/13 03:22:28;;;;;;;12.30;6.40;;;;;;;5.10;88.60;99210.38;220265;1256;140109;-66
2023/11/13 03:27:32;;;;;;;9.10;6.40;;;;;;;5.11;88.43;99210.73;217680;1256;139756;-67
2023/11/13 03:32:35;;;;;;;8.20;6.80;;;;;;;5.10;88.45;99211.71;220120;1256;139938;-67
2023/11/13 03:37:38;;;;;;;9.70;7.70;;;;;;;5.12;88.11;99220.52;220112;1256;141062;-67
2023/11/13 03:42:42;;;;;;;8.80;5.70;;;;;;;5.12;88.51;99220.28;220239;1257;140834;-67
2023/11/13 03:47:45;;;;;;;10.50;7.00;;;;;;;5.12;88.40;99219.38;220551;1254;139702;-68
2023/11/13 03:52:48;;;;;;;8.70;6.40;;;;;;;5.11;87.98;99213.70;220160;1256;141588;-69
2023/11/13 03:57:52;;;;;;;10.30;6.80;;;;;;;5.11;87.64;99211.66;220634;1256;140787;-68
2023/11/13 04:02:54;;;;;;;10.30;6.90;;;;;;;5.10;87.69;99210.53;220485;1257;140948;-68
2023/11/13 04:07:57;;;;;;;4.50;3.40;;;;;;;5.12;87.85;99209.75;220593;1256;140753;-68
2023/11/13 04:13:01;;;;;;;7.40;5.90;;;;;;;5.07;87.61;99207.21;220380;1256;140700;-68
2023/11/13 04:18:05;;;;;;;8.60;6.60;;;;;;;5.06;87.40;99211.04;217725;1257;140010;-68
2023/11/13 04:23:09;;;;;;;11.50;7.50;;;;;;;5.05;87.17;99206.57;217884;1256;139819;-68
2023/11/13 04:28:15;;;;;;;15.00;7.00;;;;;;;5.02;87.33;99218.05;220098;1258;140526;-68
2023/11/13 04:33:19;;;;;;;8.00;5.80;;;;;;;5.01;87.71;99229.30;217950;1259;140177;-68
2023/11/13 04:38:22;;;;;;;12.60;5.80;;;;;;;4.98;87.40;99228.10;219975;1256;141712;-68
2023/11/13 04:43:26;;;;;;;15.70;7.30;;;;;;;4.95;87.23;99230.18;220336;1259;140068;-67
2023/11/13 04:48:29;;;;;;;7.80;5.90;;;;;;;4.90;87.15;99225.21;220382;1257;142234;-68
2023/11/13 04:53:33;;;;;;;10.60;6.40;;;;;;;4.87;87.18;99233.58;218734;1256;139653;-66
2023/11/13 04:58:37;;;;;;;11.90;8.40;;;;;;;4.83;86.77;99237.45;220080;1257;139876;-66
2023/11/13 05:03:40;;;;;;;11.70;7.00;;;;;;;4.76;87.02;99232.11;220416;1256;141438;-65
2023/11/13 05:08:44;;;;;;;7.70;5.60;;;;;;;4.67;86.71;99231.36;219516;1256;139696;-67
2023/11/13 05:13:47;;;;;;;13.10;7.20;;;;;;;4.59;86.54;99242.36;220128;1256;140954;-69
2023/11/13 05:18:51;;;;;;;7.50;5.20;;;;;;;4.47;86.47;99251.21;220159;1259;139984;-67
2023/11/13 05:23:55;;;;;;;5.60;4.70;;;;;;;4.33;85.98;99254.44;220104;1256;140320;-67
2023/11/13 05:28:59;;;;;;;12.20;6.90;;;;;;;4.21;86.26;99257.60;220131;1256;140021;-67
2023/11/13 05:34:02;;;;;;;10.90;6.00;;;;;;;4.13;86.32;99267.05;220367;1257;140275;-66
2023/11/13 05:39:07;;;;;;;12.60;7.40;;;;;;;4.05;86.41;99268.64;220538;1256;140119;-66
2023/11/13 05:44:11;;;;;;;11.40;6.70;;;;;;;3.98;86.17;99265.48;220099;1260;140365;-66
2023/11/13 05:49:14;;;;;;;13.40;8.10;;;;;;;3.90;86.35;99270.85;220121;1256;141938;-67
2023/11/13 05:54:19;;;;;;;9.70;7.60;;;;;;;3.85;86.61;99269.17;220058;1256;141117;-66
2023/11/13 05:59:22;;;;;;;11.60;7.30;;;;;;;3.88;87.07;99275.23;220199;1256;140286;-66
2023/11/13 06:04:25;;;;;;;16.60;8.30;;;;;;;3.92;87.15;99280.46;220089;1256;140043;-66
2023/11/13 06:09:29;;;;;;;12.50;8.40;;;;;;;3.92;87.09;99281.89;220424;1257;140257;-66
2023/11/13 06:14:32;;;;;;;8.80;7.40;;;;;;;3.88;86.65;99282.48;220475;1259;141003;-67
2023/11/13 06:19:35;;;;;;;12.00;8.20;;;;;;;3.82;86.53;99282.39;220548;1259;140617;-67
2023/11/13 06:24:38;;;;;;;15.90;7.50;;;;;;;3.75;86.32;99285.27;220224;1256;141489;-67
2023/11/13 06:29:41;;;;;;;10.20;7.80;;;;;;;3.71;86.61;99290.20;220178;1259;140427;-67
2023/11/13 06:34:44;;;;;;;10.40;7.80;;;;;;;3.85;86.88;99288.73;220208;1257;139640;-67
2023/11/13 06:39:47;;;;;;;14.70;8.80;;;;;;;3.94;86.78;99295.23;220399;1256;140190;-66
2023/11/13 06:44:51;;;;;;;13.70;7.40;;;;;;;4.33;87.13;99302.30;218550;1256;139886;-66
2023/11/13 06:49:54;;;;;;;10.70;8.90;;;;;;;4.64;86.99;99300.50;219240;1256;140043;-66
2023/11/13 06:54:58;;;;;;;11.50;8.10;;;;;;;4.93;87.00;99308.27;220209;1257;142148;-67
2023/11/13 07:00:00;;;;;;;11.00;9.40;;;;;;;5.41;86.97;99314.30;220500;1257;139954;-67
2023/11/13 07:05:04;;;;;;;11.90;9.80;;;;;;;5.74;86.52;99315.98;220483;1259;140483;-66
2023/11/13 07:10:14;;;;;;;;;;;;;;;5.99;85.91;99314.17;220517;1256;140115;-66
2023/11/13 07:15:19;;;;;;;12.00;8.60;;;;;;;6.10;85.34;99312.35;220702;1260;126553;-67
2023/11/13 07:20:22;;;;;;;10.70;8.30;;;;;;;6.10;84.97;99311.77;220218;1257;140166;-67
2023/11/13 07:25:25;;;;;;;13.60;7.50;;;;;;;6.05;84.96;99311.83;220131;1257;221871;-68
2023/11/13 07:30:29;;;;;;;12.20;8.20;;;;;;;5.94;84.21;99313.16;217918;1260;140644;-66
2023/11/13 07:35:32;;;;;;;10.90;8.60;;;;;;;5.86;84.47;99308.33;219656;1260;139532;-67
2023/11/13 07:40:38;;;;;;;10.30;8.50;;;;;;;5.80;84.47;99310.02;220284;1257;140576;-67
2023/11/13 07:45:42;;;;;;;13.50;8.60;;;;;;;5.76;84.46;99314.11;220363;1257;140540;-66
2023/11/13 07:50:44;;;;;;;12.70;8.30;;;;;;;5.73;84.51;99317.79;220149;1256;160618;-66
2023/11/13 07:56:00;;;;;;;7.60;5.90;;;;;;;5.74;84.90;99329.67;220127;1257;140046;-67
2023/11/13 08:01:03;;;;;;;7.30;6.20;;;;;;;5.82;84.98;99333.30;220112;1257;139578;-67
2023/11/13 08:06:06;;;;;;;9.70;6.40;;;;;;;5.90;84.66;99339.18;220021;1257;139927;-68
2023/11/13 08:11:10;;;;;;;7.60;6.80;;;;;;;6.00;84.32;99341.40;220182;1257;139803;-67
2023/11/13 08:16:12;;;;;;;9.10;6.20;;;;;;;6.26;84.47;99343.84;220387;1257;139902;-67
2023/11/13 08:21:17;;;;;;;11.10;8.10;;;;;;;6.51;83.99;99339.47;220209;1257;141006;-67
2023/11/13 08:26:20;;;;;;;7.80;5.60;;;;;;;6.60;83.48;99334.70;220047;1256;141555;-67
2023/11/13 08:31:27;;;;;;;10.20;6.90;;;;;;;6.63;83.12;99333.29;220123;1258;140766;-68
2023/11/13 08:36:30;;;;;;;7.70;6.50;;;;;;;6.71;82.89;99322.10;220041;1256;140061;-67
2023/11/13 08:41:33;;;;;;;10.60;8.10;;;;;;;6.90;83.22;99320.01;220066;1256;140908;-67
2023/11/13 08:46:37;;;;;;;8.80;6.80;;;;;;;7.21;83.18;99321.08;220024;1257;140841;-67
2023/11/13 08:51:40;;;;;;;6.80;5.70;;;;;;;7.41;82.66;99320.98;220291;1257;139639;-65
2023/11/13 08:56:50;;;;;;;8.00;7.20;;;;;;;7.50;81.90;99316.13;220379;1256;139857;-67
2023/11/13 09:01:52;;;;;;;12.40;7.00;;;;;;;7.45;81.19;99321.61;220429;1258;140825;-67
2023/11/13 09:06:54;;;;;;;7.50;4.90;;;;;;;7.49;81.07;99326.67;220511;1256;142079;-68
2023/11/13 09:11:56;;;;;;;10.30;5.70;;;;;;;7.56;80.75;99328.45;220050;1257;139756;-69
2023/11/13 09:17:09;;;;;;;8.20;6.30;;;;;;;7.65;80.58;99327.79;220069;1257;140936;-69
2023/11/13 09:22:12;;;;;;;9.80;6.90;;;;;;;7.79;80.74;99332.48;220566;1259;140145;-68
2023/11/13 09:27:15;;;;;;;8.10;5.20;;;;;;;7.86;80.46;99331.79;220375;1256;140144;-71
2023/11/13 09:32:21;;;;;;;8.30;7.20;;;;;;;8.02;80.32;99327.86;220272;1257;140040;-70
2023/11/13 09:37:25;;;;;;;6.10;5.20;;;;;;;8.07;79.83;99333.58;219674;1257;140839;-74
2023/11/13 09:42:32;;;;;;;10.50;7.30;;;;;;;8.14;79.62;99336.52;220027;1257;210360;-74
2023/11/13 09:47:41;;;;;;;8.30;5.90;;;;;;;8.15;79.58;99339.02;218762;1257;140179;-72
2023/11/13 09:52:52;;;;;;;8.00;6.50;;;;;;;8.03;79.04;99333.91;220115;1257;140039;-69
2023/11/13 09:57:56;;;;;;;8.50;5.40;;;;;;;7.89;78.85;99335.21;220338;1256;141490;-68
2023/11/13 10:03:00;;;;;;;6.10;5.40;;;;;;;7.85;78.86;99333.60;220047;1257;141452;-69
2023/11/13 10:08:03;;;;;;;6.20;5.60;;;;;;;8.02;79.38;99333.08;220213;1256;139508;-68
2023/11/13 10:13:11;;;;;;;16.40;7.00;;;;;;;8.19;79.42;99336.30;220081;1256;140243;-69
2023/11/13 10:18:26;;;;;;;8.30;6.40;;;;;;;8.23;78.61;99332.63;220265;1256;141519;-69
2023/11/13 10:23:34;;;;;;;7.10;5.40;;;;;;;8.11;78.49;99326.61;220133;1256;140086;-69
2023/11/13 10:28:40;;;;;;;15.40;6.60;;;;;;;8.01;78.40;99326.14;220098;1256;140410;-68
2023/11/13 10:34:00;;;;;;;8.90;6.20;;;;;;;7.91;78.45;99319.17;220339;1257;139915;-69
2023/11/13 10:39:11;;;;;;;7.30;4.50;;;;;;;7.91;78.43;99318.48;219907;1256;140145;-69
2023/11/13 10:44:27;;;;;;;4.80;3.90;;;;;;;7.90;78.59;99316.70;219814;1256;139800;-69
2023/11/13 10:49:33;;;;;;;11.40;5.50;;;;;;;7.84;78.46;99309.39;217257;1256;140261;-69
2023/11/13 10:54:37;;;;;;;9.90;4.50;;;;;;;7.75;78.28;99313.03;220115;1256;139874;-68
2023/11/13 10:59:40;;;;;;;10.00;6.40;;;;;;;7.62;77.90;99308.73;219635;1256;139752;-72
2023/11/13 11:04:46;;;;;;;9.10;5.70;;;;;;;7.52;78.02;99310.03;220278;1256;140410;-69
2023/11/13 11:09:56;;;;;;;9.10;7.00;;;;;;;7.49;78.14;99310.34;217828;1256;140397;-70
2023/11/13 11:15:11;;;;;;;6.60;4.60;;;;;;;7.45;78.05;99309.66;220045;1257;139961;-71
2023/11/13 11:20:24;;;;;;;5.70;4.40;;;;;;;7.61;78.42;99308.05;218776;1256;139483;-69
2023/11/13 11:25:47;;;;;;;6.40;5.40;;;;;;;7.74;78.25;99303.83;220213;1256;140546;-70
2023/11/13 11:30:50;;;;;;;5.20;4.20;;;;;;;7.91;78.37;99298.58;220196;1255;140245;-69
2023/11/13 11:35:53;;;;;;;7.20;5.50;;;;;;;8.30;78.61;99288.61;220089;1256;140112;-72
2023/11/13 11:41:00;;;;;;;8.30;3.50;;;;;;;8.65;78.16;99293.77;220081;1255;140877;-69
2023/11/13 11:46:04;;;;;;;12.40;5.50;;;;;;;8.78;77.52;99287.15;220201;1257;140176;-69
2023/11/13 11:51:22;;;;;;;9.10;5.20;;;;;;;8.79;77.25;99277.52;220263;1256;140713;-69
2023/11/13 11:56:27;;;;;;;7.10;5.30;;;;;;;8.94;76.89;99268.66;220255;1256;140070;-69
2023/11/13 12:01:31;;;;;;;8.50;5.50;;;;;;;9.01;76.78;99266.31;220242;1256;140126;-69
2023/11/13 12:06:35;;;;;;;4.20;3.50;;;;;;;9.21;76.36;99261.64;220242;1257;141644;-73
2023/11/13 12:11:38;;;;;;;7.60;5.50;;;;;;;9.08;75.47;99262.34;220064;1257;142897;-68
2023/11/13 12:16:40;;;;;;;8.40;5.60;;;;;;;8.80;75.15;99268.88;220247;1256;140508;-69
2023/11/13 12:21:49;;;;;;;6.00;5.00;;;;;;;8.81;75.38;99271.96;220323;1256;140968;-69
2023/11/13 12:26:56;;;;;;;9.20;4.60;;;;;;;9.00;75.31;99262.03;220034;1256;140837;-71
2023/11/13 12:32:01;;;;;;;6.70;4.90;;;;;;;9.18;75.44;99254.23;220393;1259;140799;-70
2023/11/13 12:37:10;;;;;;;4.80;4.00;;;;;;;9.34;75.05;99244.02;217849;1256;140123;-72
2023/11/13 12:42:15;;;;;;;5.50;3.50;;;;;;;9.44;74.16;99239.63;220165;1257;140039;-71
2023/11/13 12:47:20;;;;;;;2.90;2.30;;;;;;;9.51;73.43;99237.77;220348;1256;140613;-70
2023/11/13 12:52:26;;;;;;;5.00;4.00;;;;;;;9.57;73.25;99238.98;220188;1255;140653;-70
2023/11/13 12:57:28;;;;;;;4.60;2.90;;;;;;;9.60;72.68;99249.80;220179;1256;140698;-70
2023/11/13 13:02:33;;;;;;;3.40;3.00;;;;;;;9.54;72.01;99250.16;219219;1256;141294;-70
2023/11/13 13:07:38;;;;;;;4.30;3.20;;;;;;;9.60;71.91;99242.23;218670;1259;141169;-72
2023/11/13 13:12:42;;;;;;;7.90;3.80;;;;;;;9.43;71.25;99235.34;219796;1256;140413;-73
2023/11/13 13:17:52;;;;;;;5.70;3.50;;;;;;;9.25;71.34;99247.13;218373;1257;611076;-70
2023/11/13 13:22:56;;;;;;;;;;;;;;;9.21;71.44;99250.89;219445;1256;140634;-71
2023/11/13 13:28:03;;;;;;;4.70;2.60;;;;;;;9.32;71.44;99249.78;218873;1256;126261;-70
2023/11/13 13:33:10;;;;;;;6.90;3.40;;;;;;;9.39;70.99;99237.13;220468;1256;139502;-72
2023/11/13 13:38:16;;;;;;;3.10;2.80;;;;;;;9.36;70.73;99238.58;218699;1256;141210;-70
2023/11/13 13:43:19;;;;;;;7.20;4.20;;;;;;;9.37;70.49;99227.95;218671;1256;141208;-70
2023/11/13 13:48:22;;;;;;;5.60;3.50;;;;;;;9.28;70.12;99217.67;218631;1256;141346;-68
2023/11/13 13:53:31;;;;;;;5.20;3.00;;;;;;;9.15;69.80;99217.76;220486;1256;235527;-70
2023/11/13 13:58:37;;;;;;;4.70;3.50;;;;;;;9.02;69.85;99210.18;219536;1256;140409;-72
2023/11/13 14:03:41;;;;;;;7.80;3.00;;;;;;;8.89;69.75;99205.19;220181;1257;140899;-71
2023/11/13 14:08:45;;;;;;;4.90;2.70;;;;;;;8.75;69.81;99209.40;220382;1256;140299;-70
2023/11/13 14:13:51;;;;;;;6.10;3.50;;;;;;;8.60;69.81;99204.39;220101;1257;139819;-70
2023/11/13 14:18:55;;;;;;;4.20;3.80;;;;;;;8.43;69.68;99201.20;220083;1256;140596;-71
2023/11/13 14:23:59;;;;;;;5.50;3.60;;;;;;;8.27;70.39;99191.15;220193;1256;141228;-69
2023/11/13 14:29:04;;;;;;;9.30;4.20;;;;;;;8.14;70.43;99194.64;220176;1256;140567;-68
2023/11/13 14:34:08;;;;;;;9.10;4.00;;;;;;;7.95;70.57;99197.18;220119;1256;139632;-71
2023/11/13 14:39:14;;;;;;;4.10;3.60;;;;;;;7.69;70.48;99192.97;220155;1256;139404;-69
2023/11/13 14:44:17;;;;;;;7.50;3.10;;;;;;;7.39;70.54;99186.86;220084;1256;141641;-70
2023/11/13 14:49:20;;;;;;;5.70;4.30;;;;;;;7.09;70.83;99185.52;220214;1256;139406;-69
2023/11/13 14:54:22;;;;;;;5.30;3.60;;;;;;;6.80;71.15;99187.13;220230;1256;139945;-69
2023/11/13 14:59:25;;;;;;;6.80;3.40;;;;;;;6.52;71.32;99180.14;218128;1258;140753;-68
2023/11/13 15:04:28;;;;;;;9.30;3.60;;;;;;;6.18;71.66;99175.52;218905;1258;139982;-70
2023/11/13 15:09:31;;;;;;;3.50;2.90;;;;;;;5.79;71.27;99177.73;220523;1256;140140;-70
2023/11/13 15:14:40;;;;;;;4.80;3.10;;;;;;;5.43;71.82;99180.83;220144;1256;139888;-68
2023/11/13 15:19:43;;;;;;;6.40;4.60;;;;;;;5.09;71.75;99179.15;218269;1256;140317;-68
2023/11/13 15:24:45;;;;;;;8.80;4.70;;;;;;;4.79;72.20;99183.35;220145;1256;139454;-69
2023/11/13 15:29:49;;;;;;;7.70;4.40;;;;;;;4.44;72.30;99179.95;219634;1257;140893;-68
2023/11/13 15:34:53;;;;;;;14.50;7.90;;;;;;;4.11;72.64;99168.81;219810;1257;141783;-67
2023/11/13 15:39:56;;;;;;;11.20;7.50;;;;;;;3.82;72.69;99165.95;220428;1255;141113;-68
2023/11/13 15:44:59;;;;;;;25.50;8.50;;;;;;;3.51;73.33;99157.38;220191;1257;139829;-68
2023/11/13 15:50:05;;;;;;;35.30;20.70;;;;;;;3.34;74.23;99145.47;220149;1256;140360;-69
2023/11/13 15:55:12;;;;;;;76.60;42.70;;;;;;;3.32;74.77;99139.27;220123;1256;141390;-68
2023/11/13 16:00:15;;;;;;;67.50;31.90;;;;;;;3.26;75.21;99128.97;220114;1256;140821;-69
2023/11/13 16:05:19;;;;;;;51.50;24.00;;;;;;;3.18;75.21;99125.06;220100;1256;140098;-70
2023/11/13 16:10:23;;;;;;;28.80;17.10;;;;;;;3.09;75.33;99122.15;220293;1256;141091;-70
2023/11/13 16:15:26;;;;;;;25.20;13.10;;;;;;;2.94;75.45;99115.08;220320;1256;141072;-71
2023/11/13 16:20:31;;;;;;;35.90;13.50;;;;;;;2.76;75.38;99103.95;220227;1256;140517;-70
2023/11/13 16:25:36;;;;;;;36.10;19.00;;;;;;;2.66;75.98;99104.19;220452;1256;140398;-69
2023/11/13 16:30:39;;;;;;;32.20;16.60;;;;;;;2.54;75.84;99094.95;220190;1256;139946;-67
2023/11/13 16:35:44;;;;;;;20.90;11.20;;;;;;;2.39;75.85;99086.27;220194;1256;139946;-71
2023/11/13 16:40:46;;;;;;;16.90;10.10;;;;;;;2.25;76.03;99079.49;220270;1256;140753;-67
2023/11/13 16:45:51;;;;;;;22.20;12.70;;;;;;;2.09;75.95;99076.24;220217;1256;140830;-68
2023/11/13 16:50:54;;;;;;;22.90;15.30;;;;;;;1.97;76.59;99076.71;220243;1256;140252;-68
2023/11/13 16:55:59;;;;;;;23.90;14.40;;;;;;;1.90;77.18;99077.84;220277;1256;140768;-67
2023/11/13 17:01:04;;;;;;;36.10;16.50;;;;;;;1.88;77.19;99073.34;220334;1259;141348;-68
2023/11/13 17:06:10;;;;;;;26.80;15.00;;;;;;;1.81;77.34;99066.77;220247;1257;141416;-68
2023/11/13 17:11:13;;;;;;;29.70;17.60;;;;;;;1.78;77.51;99070.27;218981;1257;139699;-69
2023/11/13 17:16:16;;;;;;;30.40;17.70;;;;;;;1.70;77.29;99070.11;220396;1256;140596;-69
2023/11/13 17:21:20;;;;;;;26.40;15.00;;;;;;;1.64;77.84;99062.27;218563;1256;139977;-70
2023/11/13 17:26:24;;;;;;;30.30;19.40;;;;;;;1.54;77.60;99074.91;219153;1256;141798;-69
2023/11/13 17:31:30;;;;;;;35.60;18.60;;;;;;;1.41;77.87;99068.95;220533;1256;140379;-69
2023/11/13 17:36:36;;;;;;;42.90;19.50;;;;;;;1.22;77.86;99057.92;220193;1256;140842;-68
2023/11/13 17:41:38;;;;;;;79.80;30.90;;;;;;;1.13;78.21;99053.14;220282;1256;140171;-68
2023/11/13 17:46:43;;;;;;;51.50;27.40;;;;;;;1.13;78.63;99043.92;219270;1258;140905;-69
2023/11/13 17:51:47;;;;;;;67.60;27.70;;;;;;;1.12;78.84;99044.40;218990;1257;140430;-68
2023/11/13 17:56:52;;;;;;;45.10;21.70;;;;;;;1.08;78.64;99031.65;217845;1256;139921;-68
2023/11/13 18:01:55;;;;;;;40.50;21.60;;;;;;;0.99;78.79;99022.82;220075;1256;140402;-70
2023/11/13 18:06:58;;;;;;;77.60;31.50;;;;;;;0.90;79.02;99001.57;220294;1256;139995;-67
2023/11/13 18:12:01;;;;;;;41.20;21.50;;;;;;;0.90;79.35;98980.30;220217;1256;140602;-67
2023/11/13 18:17:04;;;;;;;35.30;18.60;;;;;;;0.94;79.15;98964.69;219311;1256;139614;-69
2023/11/13 18:22:06;;;;;;;35.10;16.90;;;;;;;1.02;79.35;98953.44;220200;1257;139884;-68
2023/11/13 18:27:10;;;;;;;25.00;13.80;;;;;;;1.11;79.42;98963.80;220379;1256;140523;-66
2023/11/13 18:32:20;;;;;;;34.40;17.80;;;;;;;1.18;79.62;98959.23;220400;1255;140444;-67
2023/11/13 18:37:29;;;;;;;27.80;17.30;;;;;;;1.22;79.31;98947.59;220251;1259;140719;-68
2023/11/13 18:42:33;;;;;;;25.90;16.50;;;;;;;1.23;79.41;98945.16;220421;1257;140975;-68
2023/11/13 18:47:37;;;;;;;28.40;17.30;;;;;;;1.24;79.13;98946.93;220291;1259;141414;-66
2023/11/13 18:52:42;;;;;;;28.20;17.20;;;;;;;1.20;79.49;98930.13;220287;1256;140049;-69
2023/11/13 18:57:49;;;;;;;29.50;16.40;;;;;;;1.19;79.31;98916.15;220130;1256;140789;-66
2023/11/13 19:02:58;;;;;;;27.50;15.60;;;;;;;1.24;79.44;98926.17;220221;1260;141516;-69
2023/11/13 19:08:01;;;;;;;20.20;11.10;;;;;;;1.30;79.60;98901.25;219606;1256;140417;-67
2023/11/13 19:13:05;;;;;;;31.10;19.00;;;;;;;1.37;79.83;98871.55;220318;1257;141191;-67
2023/11/13 19:18:10;;;;;;;35.80;17.20;;;;;;;1.46;79.53;98859.95;220299;1256;140680;-69
2023/11/13 19:23:17;;;;;;;33.50;18.10;;;;;;;1.60;79.89;98870.00;220190;1259;140367;-69
2023/11/13 19:28:21;;;;;;;20.60;11.50;;;;;;;1.74;80.01;98866.09;220062;1257;141098;-67
2023/11/13 19:33:25;;;;;;;25.60;13.40;;;;;;;1.90;79.73;98859.47;220197;1256;140461;-68
2023/11/13 19:38:32;;;;;;;21.20;11.30;;;;;;;2.05;79.94;98855.17;220080;1256;140782;-67
2023/11/13 19:43:35;;;;;;;21.70;10.70;;;;;;;2.19;79.63;98842.42;220143;1257;141867;-67
2023/11/13 19:48:37;;;;;;;16.80;10.40;;;;;;;2.31;79.24;98830.17;218963;1256;140504;-68
2023/11/13 19:53:41;;;;;;;23.80;12.90;;;;;;;2.41;79.28;98824.50;218700;1256;140072;-67
2023/11/13 19:58:44;;;;;;;23.00;10.60;;;;;;;2.51;78.90;98835.88;219030;1256;142140;-67
2023/11/13 20:03:47;;;;;;;21.40;10.30;;;;;;;2.59;78.83;98824.34;220023;1257;140205;-69
2023/11/13 20:08:51;;;;;;;21.20;11.10;;;;;;;2.63;78.78;98806.98;220324;1256;140960;-68
2023/11/13 20:13:56;;;;;;;17.20;10.60;;;;;;;2.68;78.49;98790.77;220135;1256;142285;-68
2023/11/13 20:18:58;;;;;;;16.70;10.30;;;;;;;2.72;78.21;98776.39;220218;1256;140382;-68
2023/11/13 20:24:01;;;;;;;18.80;10.70;;;;;;;2.76;78.46;98758.18;220257;1256;140413;-68
2023/11/13 20:29:04;;;;;;;15.60;10.00;;;;;;;2.80;78.04;98714.27;220359;1256;140860;-68
2023/11/13 20:34:07;;;;;;;14.20;8.30;;;;;;;2.83;78.00;98691.95;220068;1260;141276;-67
2023/11/13 20:39:11;;;;;;;24.90;9.90;;;;;;;2.88;78.01;98676.02;220186;1260;142859;-67
2023/11/13 20:44:13;;;;;;;18.00;10.70;;;;;;;2.94;77.87;98657.77;220169;1256;141225;-68
2023/11/13 20:49:16;;;;;;;18.40;8.90;;;;;;;3.01;77.99;98651.08;220359;1256;141063;-69
2023/11/13 20:54:19;;;;;;;15.70;9.60;;;;;;;3.09;77.91;98636.55;220315;1256;140062;-69
2023/11/13 20:59:23;;;;;;;22.30;9.90;;;;;;;3.13;78.07;98613.48;220180;1256;140439;-69
2023/11/13 21:04:26;;;;;;;19.50;11.70;;;;;;;3.17;78.15;98595.91;219948;1257;139982;-69
2023/11/13 21:09:28;;;;;;;18.10;11.70;;;;;;;3.20;78.19;98595.16;220156;1256;140666;-70
2023/11/13 21:14:30;;;;;;;24.50;11.80;;;;;;;3.26;78.18;98588.67;220179;1257;139982;-70
2023/11/13 21:19:34;;;;;;;17.00;10.90;;;;;;;3.31;78.08;98561.77;219835;1258;140177;-69
2023/11/13 21:24:36;;;;;;;20.90;13.90;;;;;;;3.35;78.15;98530.81;220356;1256;140333;-69
2023/11/13 21:29:39;;;;;;;23.10;13.70;;;;;;;3.37;78.13;98505.05;220294;1260;140979;-69
2023/11/13 21:34:41;;;;;;;23.10;10.80;;;;;;;3.44;78.17;98475.99;218812;1256;140905;-70
2023/11/13 21:39:44;;;;;;;16.40;10.00;;;;;;;3.50;78.31;98448.78;220168;1257;142891;-69
2023/11/13 21:44:47;;;;;;;15.60;11.90;;;;;;;3.58;78.27;98445.45;218638;1260;143025;-68
2023/11/13 21:49:49;;;;;;;19.10;9.90;;;;;;;3.67;78.07;98441.36;219472;1256;140489;-68
2023/11/13 21:54:51;;;;;;;20.40;10.10;;;;;;;3.75;78.04;98440.73;220187;1258;140644;-69
2023/11/13 21:59:56;;;;;;;17.60;10.90;;;;;;;3.84;77.75;98430.16;220276;1256;140173;-67
2023/11/13 22:04:58;;;;;;;16.00;9.20;;;;;;;3.90;77.64;98404.59;220332;1256;141443;-67
2023/11/13 22:10:01;;;;;;;14.40;10.40;;;;;;;3.95;77.40;98418.58;220325;1259;140475;-69
2023/11/13 22:15:09;;;;;;;15.30;10.50;;;;;;;4.01;77.29;98432.91;219564;1258;140629;-69
2023/11/13 22:20:12;;;;;;;15.60;10.50;;;;;;;4.09;77.34;98444.10;220255;1256;140469;-69
2023/11/13 22:25:15;;;;;;;18.20;10.20;;;;;;;4.14;77.32;98438.91;220287;1257;141258;-71
2023/11/13 22:30:18;;;;;;;16.00;10.00;;;;;;;4.17;77.79;98432.63;220274;1256;140151;-68
2023/11/13 22:35:20;;;;;;;19.70;12.20;;;;;;;4.14;78.25;98416.18;220348;1256;140409;-67
2023/11/13 22:40:23;;;;;;;15.70;10.30;;;;;;;4.05;78.79;98389.66;220216;1260;142083;-68
2023/11/13 22:45:27;;;;;;;16.70;10.50;;;;;;;3.97;79.40;98371.93;218800;1258;140858;-68
2023/11/13 22:50:30;;;;;;;21.30;11.60;;;;;;;3.87;79.91;98342.45;220139;1258;139916;-67
2023/11/13 22:55:33;;;;;;;16.40;10.90;;;;;;;3.81;80.28;98336.24;220189;1258;140409;-68
2023/11/13 23:00:46;;;;;;;18.60;11.00;;;;;;;3.74;80.99;98320.73;220291;1257;209023;-68
2023/11/13 23:05:49;;;;;;;14.60;8.90;;;;;;;3.68;81.58;98336.44;219358;1256;140290;-68
2023/11/13 23:10:52;;;;;;;18.60;10.50;;;;;;;3.69;81.85;98342.72;220299;1258;140951;-69
2023/11/13 23:15:54;;;;;;;16.50;9.70;;;;;;;3.66;82.35;98328.55;220373;1259;141899;-67
2023/11/13 23:21:15;;;;;;;18.70;11.60;;;;;;;3.67;82.64;98330.23;220153;1260;139807;-69